Time;durP1;ratioP1;P1;durP2;ratioP2;P2;SDS_P1;SDS_P2;PMS_P1;PMS_P2;Temp;Humidity;BMP_temperature;BMP_pressure;BME280_temperature;BME280_humidity;BME280_pressure;Samples;Min_cycle;Max_cycle;Signal;HPM_P1;HPM_P2
2022/08/11 00:01:36;;;;;;;;;;;21.80;83.80;;;;;;4399237;32;19956;-73
2022/08/11 00:04:03;;;;;;;;;;;21.70;84.00;;;;;;4398369;32;19953;-73
2022/08/11 00:06:30;;;;;;;;;;;21.60;84.10;;;;;;4398328;32;19953;-73
2022/08/11 00:08:56;;;;;;;;;;;21.70;84.60;;;;;;4399249;32;19949;-73
2022/08/11 00:11:31;;;;;;;;;;;21.60;83.70;;;;;;4400224;32;19950;-73
2022/08/11 00:13:56;;;;;;;;;;;21.60;84.00;;;;;;4398425;32;20402;-73
2022/08/11 00:16:23;;;;;;;;;;;21.60;84.50;;;;;;4398445;32;20009;-73
2022/08/11 00:18:51;;;;;;;;;;;21.50;84.70;;;;;;4398844;32;19952;-73
2022/08/11 00:21:17;;;;;;;;;;;21.40;84.00;;;;;;4399338;32;19968;-73
2022/08/11 00:23:44;;;;;;;;;;;21.50;83.70;;;;;;4398203;32;19954;-73
2022/08/11 00:26:10;;;;;;;;;;;21.40;84.90;;;;;;4398411;32;20319;-73
2022/08/11 00:28:35;;;;;;;;;;;21.40;84.60;;;;;;4397505;32;19960;-73
2022/08/11 00:31:04;;;;;;;;;;;21.30;84.90;;;;;;4398752;32;19941;-73
2022/08/11 00:33:32;;;;;;;;;;;21.30;85.40;;;;;;4401586;32;19959;-73
2022/08/11 00:35:59;;;;;;;;;;;21.20;84.80;;;;;;4400777;32;19989;-73
2022/08/11 00:38:27;;;;;;;;;;;21.20;85.40;;;;;;4400355;32;20417;-73
2022/08/11 00:40:58;;;;;;;;;;;21.10;85.50;;;;;;4401593;32;20004;-73
2022/08/11 00:43:43;;;;;;;;;;;21.10;85.50;;;;;;4400211;32;20429;-73
2022/08/11 00:46:14;;;;;;;;;;;21.10;85.70;;;;;;4388651;32;20174;-73
2022/08/11 00:48:47;;;;;;;;;;;21.10;85.60;;;;;;4401399;32;19953;-73
2022/08/11 00:51:19;;;;;;;;;;;21.10;85.60;;;;;;4401757;32;19945;-73
2022/08/11 00:54:04;;;;;;;;;;;21.10;85.90;;;;;;4400409;32;19961;-73
2022/08/11 00:56:32;;;;;;;;;;;21.00;85.40;;;;;;4395283;32;20001;-73
2022/08/11 00:59:17;;;;;;;;;;;21.10;85.60;;;;;;4400035;32;19957;-73
2022/08/11 01:01:49;;;;;;;;;;;21.00;85.70;;;;;;4389123;32;20005;-73
2022/08/11 01:04:34;;;;;;;;;;;21.00;86.20;;;;;;4401466;32;19953;-73
2022/08/11 01:07:01;;;;;;;;;;;20.90;86.50;;;;;;4389141;32;19954;-73
2022/08/11 01:09:32;;;;;;;;;;;20.90;86.40;;;;;;4393497;32;19965;-73
2022/08/11 01:12:17;;;;;;;;;;;20.90;86.70;;;;;;4385101;32;19942;-73
2022/08/11 01:15:02;;;;;;;;;;;20.80;86.70;;;;;;4384503;32;19958;-73
2022/08/11 01:17:46;;;;;;;;;;;20.70;87.50;;;;;;4385227;32;20383;-73
2022/08/11 01:20:27;;;;;;;;;;;20.60;87.80;;;;;;4399005;32;20369;-73
2022/08/11 01:23:13;;;;;;;;;;;20.60;87.80;;;;;;4400087;32;19965;-73
2022/08/11 01:25:43;;;;;;;;;;;20.60;87.80;;;;;;4389868;32;19960;-73
2022/08/11 01:28:24;;;;;;;;;;;20.60;87.90;;;;;;4400550;32;19957;-73
2022/08/11 01:30:52;;;;;;;;;;;20.60;88.20;;;;;;4400331;32;19957;-72
2022/08/11 01:33:37;;;;;;;;;;;20.50;88.30;;;;;;4400584;32;19945;-72
2022/08/11 01:36:07;;;;;;;;;;;20.50;88.50;;;;;;4389330;32;19949;-72
2022/08/11 01:38:52;;;;;;;;;;;20.40;88.70;;;;;;4401166;32;19945;-72
2022/08/11 01:41:24;;;;;;;;;;;20.40;88.70;;;;;;4388601;32;20412;-72
2022/08/11 01:44:51;;;;;;;;;;;20.40;88.90;;;;;;4400326;32;20410;-72
2022/08/11 01:46:44;;;;;;;;;;;20.40;88.90;;;;;;4388253;32;19968;-72
2022/08/11 01:49:14;;;;;;;;;;;20.30;89.30;;;;;;4412840;32;19961;-72
2022/08/11 01:51:43;;;;;;;;;;;20.30;89.70;;;;;;4415020;32;19942;-73
2022/08/11 01:54:16;;;;;;;;;;;20.20;89.80;;;;;;4414399;32;19969;-72
2022/08/11 01:56:55;;;;;;;;;;;20.20;90.00;;;;;;4400266;32;20292;-72
2022/08/11 01:59:23;;;;;;;;;;;20.20;90.30;;;;;;4398700;32;19952;-73
2022/08/11 02:02:08;;;;;;;;;;;20.20;90.30;;;;;;4399976;32;20032;-73
2022/08/11 02:04:41;;;;;;;;;;;20.10;90.30;;;;;;4389201;32;19949;-73
2022/08/11 02:07:12;;;;;;;;;;;20.00;90.50;;;;;;4400708;32;20279;-73
2022/08/11 02:09:44;;;;;;;;;;;20.00;90.60;;;;;;4389991;32;20005;-73
2022/08/11 02:12:14;;;;;;;;;;;20.00;90.70;;;;;;4384343;32;19950;-73
2022/08/11 02:14:44;;;;;;;;;;;19.90;90.70;;;;;;4393788;32;19956;-73
2022/08/11 02:17:13;;;;;;;;;;;19.90;91.00;;;;;;4400311;32;19956;-73
2022/08/11 02:23:41;;;;;;;;;;;19.90;90.90;;;;;;4388199;32;19949;-73
2022/08/11 02:25:22;;;;;;;;;;;19.90;91.00;;;;;;4389391;32;19945;-73
2022/08/11 02:27:52;;;;;;;;;;;19.90;91.00;;;;;;4399339;32;20314;-73
2022/08/11 02:30:22;;;;;;;;;;;19.90;90.80;;;;;;4399149;32;19996;-73
2022/08/11 02:33:23;;;;;;;;;;;19.90;90.90;;;;;;4399211;32;20266;-73
2022/08/11 02:35:50;;;;;;;;;;;19.90;90.90;;;;;;4389993;32;19995;-73
2022/08/11 02:38:20;;;;;;;;;;;19.80;90.80;;;;;;4400186;32;19954;-73
2022/08/11 02:42:21;;;;;;;;;;;19.90;90.80;;;;;;4392975;32;19963;-73
2022/08/11 02:44:05;;;;;;;;;;;19.90;91.20;;;;;;4390321;32;19960;-73
2022/08/11 02:46:36;;;;;;;;;;;19.80;90.90;;;;;;4405842;32;19949;-74
2022/08/11 02:50:03;;;;;;;;;;;19.80;90.90;;;;;;4399704;32;19970;-73
2022/08/11 02:52:01;;;;;;;;;;;19.80;91.20;;;;;;4398171;32;20303;-73
2022/08/11 02:54:47;;;;;;;;;;;19.70;91.30;;;;;;4399627;32;19959;-74
2022/08/11 02:57:19;;;;;;;;;;;19.70;91.30;;;;;;4388013;32;20002;-73
2022/08/11 02:59:54;;;;;;;;;;;19.60;91.60;;;;;;4400162;32;19953;-73
2022/08/11 03:02:30;;;;;;;;;;;19.60;91.80;;;;;;4400259;32;20444;-73
2022/08/11 03:05:16;;;;;;;;;;;19.50;92.00;;;;;;4399826;32;19953;-73
2022/08/11 03:07:43;;;;;;;;;;;19.40;92.20;;;;;;4393789;32;19957;-73
2022/08/11 03:10:28;;;;;;;;;;;19.40;92.20;;;;;;4399002;32;20374;-74
2022/08/11 03:16:50;;;;;;;;;;;19.30;92.40;;;;;;4387771;32;19999;-73
2022/08/11 03:19:24;;;;;;;;;;;19.30;92.50;;;;;;4387566;32;19956;-73
2022/08/11 03:21:55;;;;;;;;;;;19.40;92.20;;;;;;4401166;32;20370;-73
2022/08/11 03:24:28;;;;;;;;;;;19.40;92.20;;;;;;4399793;32;19945;-73
2022/08/11 03:27:04;;;;;;;;;;;19.40;92.10;;;;;;4399780;32;20002;-73
2022/08/11 03:29:34;;;;;;;;;;;19.40;92.30;;;;;;4400213;32;19996;-73
2022/08/11 03:32:05;;;;;;;;;;;19.40;92.30;;;;;;4399797;32;19950;-73
2022/08/11 03:34:31;;;;;;;;;;;19.40;92.30;;;;;;4400031;32;19945;-73
2022/08/11 03:37:47;;;;;;;;;;;19.40;92.30;;;;;;4399354;32;20354;-73
2022/08/11 03:41:41;;;;;;;;;;;19.30;92.40;;;;;;4378908;32;19976;-73
2022/08/11 03:43:17;;;;;;;;;;;19.30;92.80;;;;;;4398406;32;19950;-73
2022/08/11 03:46:02;;;;;;;;;;;19.20;92.60;;;;;;4400090;32;19960;-73
2022/08/11 03:48:38;;;;;;;;;;;19.20;92.80;;;;;;4388616;32;20371;-73
2022/08/11 03:51:08;;;;;;;;;;;19.10;93.10;;;;;;4399813;32;19945;-73
2022/08/11 03:53:53;;;;;;;;;;;19.20;93.00;;;;;;4399379;32;20213;-73
2022/08/11 03:56:39;;;;;;;;;;;19.10;93.10;;;;;;4388271;32;20032;-73
2022/08/11 03:59:16;;;;;;;;;;;19.10;93.20;;;;;;4386814;32;19962;-73
2022/08/11 04:02:01;;;;;;;;;;;19.10;93.30;;;;;;4400871;32;19969;-73
2022/08/11 04:04:46;;;;;;;;;;;19.10;93.20;;;;;;4386890;32;20003;-73
2022/08/11 04:07:32;;;;;;;;;;;19.10;93.80;;;;;;4388694;32;19983;-74
2022/08/11 04:10:17;;;;;;;;;;;19.10;94.20;;;;;;4391073;32;20044;-73
2022/08/11 04:13:03;;;;;;;;;;;19.00;93.80;;;;;;4399881;32;20373;-73
2022/08/11 04:16:03;;;;;;;;;;;18.90;94.20;;;;;;4389923;32;19990;-73
2022/08/11 04:18:42;;;;;;;;;;;19.00;94.20;;;;;;4392353;32;20370;-73
2022/08/11 04:21:21;;;;;;;;;;;18.90;94.20;;;;;;4401409;32;20297;-73
2022/08/11 04:23:51;;;;;;;;;;;18.90;94.30;;;;;;4401899;32;19957;-73
2022/08/11 04:26:36;;;;;;;;;;;18.90;94.30;;;;;;4402177;32;19948;-73
2022/08/11 04:29:13;;;;;;;;;;;18.90;94.40;;;;;;4390229;32;20005;-73
2022/08/11 04:31:49;;;;;;;;;;;18.90;94.60;;;;;;4401504;32;19945;-73
2022/08/11 04:34:34;;;;;;;;;;;18.90;94.80;;;;;;4401890;32;19953;-73
2022/08/11 04:37:41;;;;;;;;;;;19.10;94.60;;;;;;4390145;32;19942;-73
2022/08/11 04:40:15;;;;;;;;;;;19.00;94.50;;;;;;4389635;32;19953;-73
2022/08/11 04:43:32;;;;;;;;;;;19.00;94.70;;;;;;4389519;32;19951;-73
2022/08/11 04:45:54;;;;;;;;;;;18.90;94.90;;;;;;4381335;32;19969;-73
2022/08/11 05:01:39;;;;;;;;;;;19.10;94.70;;;;;;4387456;32;84834;-73
2022/08/11 05:01:47;;;;;;;;;;;19.00;94.90;;;;;;4387752;32;19970;-73
2022/08/11 05:02:41;;;;;;;;;;;19.00;95.00;;;;;;4389178;32;19997;-73
2022/08/11 05:05:33;;;;;;;;;;;19.10;95.00;;;;;;4401974;32;19960;-73
2022/08/11 05:08:18;;;;;;;;;;;19.10;95.10;;;;;;4404390;32;19957;-73
2022/08/11 05:11:03;;;;;;;;;;;19.20;95.10;;;;;;4401733;32;20004;-72
2022/08/11 05:34:52;;;;;;;;;;;19.70;94.20;;;;;;4398891;32;19957;-73
2022/08/11 05:36:16;;;;;;;;;;;19.80;94.20;;;;;;4399216;32;20306;-73
2022/08/11 05:56:24;;;;;;;;;;;20.20;93.60;;;;;;4388244;32;19953;-72
2022/08/11 05:58:11;;;;;;;;;;;20.30;93.40;;;;;;4388343;32;19955;-72
2022/08/11 06:00:44;;;;;;;;;;;20.50;92.80;;;;;;4400423;32;19995;-73
2022/08/11 06:03:10;;;;;;;;;;;20.50;92.70;;;;;;4399833;32;19949;-73
2022/08/11 06:05:37;;;;;;;;;;;20.60;92.40;;;;;;4400865;32;19944;-73
2022/08/11 06:08:04;;;;;;;;;;;20.60;92.40;;;;;;4399859;32;19949;-72
2022/08/11 06:10:32;;;;;;;;;;;20.70;92.30;;;;;;4400029;32;19942;-72
2022/08/11 06:12:59;;;;;;;;;;;20.70;92.50;;;;;;4400598;32;19949;-72
2022/08/11 06:15:25;;;;;;;;;;;20.70;92.20;;;;;;4399635;32;19952;-72
2022/08/11 06:17:52;;;;;;;;;;;20.70;92.30;;;;;;4400468;32;19949;-73
2022/08/11 06:20:18;;;;;;;;;;;20.90;92.10;;;;;;4399263;32;19942;-73
2022/08/11 06:22:44;;;;;;;;;;;20.90;91.90;;;;;;4399319;32;19996;-72
2022/08/11 06:25:11;;;;;;;;;;;20.90;92.10;;;;;;4400775;32;19942;-73
2022/08/11 06:27:37;;;;;;;;;;;21.00;92.00;;;;;;4399694;32;19941;-73
2022/08/11 06:30:12;;;;;;;;;;;21.10;92.40;;;;;;4400625;32;19999;-72
2022/08/11 06:32:39;;;;;;;;;;;21.00;92.00;;;;;;4399942;32;20322;-73
2022/08/11 06:35:22;;;;;;;;;;;21.10;92.00;;;;;;4399887;32;19961;-73
2022/08/11 06:37:56;;;;;;;;;;;21.10;91.80;;;;;;4399286;32;20003;-73
2022/08/11 06:40:23;;;;;;;;;;;21.20;91.80;;;;;;4400088;32;20397;-72
2022/08/11 06:42:55;;;;;;;;;;;21.30;91.80;;;;;;4400100;32;20008;-72
2022/08/11 06:45:25;;;;;;;;;;;21.40;91.90;;;;;;4400164;32;20367;-72
2022/08/11 06:47:50;;;;;;;;;;;21.50;91.40;;;;;;4400341;32;19949;-72
2022/08/11 06:51:12;;;;;;;;;;;21.50;91.50;;;;;;4399316;32;20383;-72
2022/08/11 06:53:04;;;;;;;;;;;21.60;91.10;;;;;;4388143;32;19953;-72
2022/08/11 07:00:32;;;;;;;;;;;21.80;91.00;;;;;;4413067;32;20420;-72
2022/08/11 07:01:10;;;;;;;;;;;22.00;90.50;;;;;;4389416;32;20369;-73
2022/08/11 07:03:38;;;;;;;;;;;22.20;90.40;;;;;;4400051;32;19953;-73
2022/08/11 07:06:14;;;;;;;;;;;22.20;90.30;;;;;;4399122;32;20005;-73
2022/08/11 07:15:47;;;;;;;;;;;22.40;89.80;;;;;;4374021;32;19953;-73
2022/08/11 07:17:33;;;;;;;;;;;22.50;89.70;;;;;;4388051;32;19960;-73
2022/08/11 07:29:00;;;;;;;;;;;22.80;89.10;;;;;;4387519;32;19953;-73
2022/08/11 07:31:16;;;;;;;;;;;23.00;88.50;;;;;;4387077;32;19949;-73
2022/08/11 07:33:46;;;;;;;;;;;23.10;87.80;;;;;;4399387;32;20342;-73
2022/08/11 07:36:12;;;;;;;;;;;23.30;87.30;;;;;;4399525;32;19934;-73
2022/08/11 07:38:43;;;;;;;;;;;23.40;86.10;;;;;;4399781;32;19942;-73
2022/08/11 07:41:10;;;;;;;;;;;23.40;86.20;;;;;;4400470;32;20350;-73
2022/08/11 07:43:36;;;;;;;;;;;23.40;86.40;;;;;;4400744;32;19953;-74
2022/08/11 07:52:35;;;;;;;;;;;23.80;85.30;;;;;;4390013;32;20020;-73
2022/08/11 07:54:20;;;;;;;;;;;23.70;85.20;;;;;;4394067;32;19991;-73
2022/08/11 07:56:46;;;;;;;;;;;24.00;85.40;;;;;;4416791;32;20016;-73
2022/08/11 08:17:50;;;;;;;;;;;25.10;80.70;;;;;;4385235;32;19943;-73
2022/08/11 08:18:35;;;;;;;;;;;25.10;80.10;;;;;;4384817;32;19968;-73
2022/08/11 08:21:10;;;;;;;;;;;25.10;80.30;;;;;;4385971;32;19950;-74
2022/08/11 08:23:37;;;;;;;;;;;25.20;80.80;;;;;;4387246;32;19960;-73
2022/08/11 08:26:04;;;;;;;;;;;25.30;80.10;;;;;;4389309;32;20377;-73
2022/08/11 08:28:31;;;;;;;;;;;25.40;79.70;;;;;;4387501;32;19949;-72
2022/08/11 08:30:57;;;;;;;;;;;25.50;79.50;;;;;;4401243;32;19954;-72
2022/08/11 08:33:24;;;;;;;;;;;25.60;79.10;;;;;;4401588;32;20299;-73
2022/08/11 08:36:10;;;;;;;;;;;25.80;78.30;;;;;;4401165;32;19954;-73
2022/08/11 08:38:39;;;;;;;;;;;25.70;78.00;;;;;;4400498;32;19969;-73
2022/08/11 08:41:05;;;;;;;;;;;25.80;77.20;;;;;;4400180;32;20350;-73
2022/08/11 08:43:31;;;;;;;;;;;25.90;77.60;;;;;;4401365;32;19941;-73
2022/08/11 08:45:57;;;;;;;;;;;26.00;77.70;;;;;;4400831;32;20366;-73
2022/08/11 08:48:23;;;;;;;;;;;26.00;74.50;;;;;;4401277;32;19941;-73
2022/08/11 08:51:51;;;;;;;;;;;26.10;74.90;;;;;;4401701;32;19953;-73
2022/08/11 08:53:39;;;;;;;;;;;26.20;74.70;;;;;;4387784;32;20395;-73
2022/08/11 08:56:06;;;;;;;;;;;26.30;74.00;;;;;;4416304;32;19941;-73
2022/08/11 08:58:33;;;;;;;;;;;26.40;74.30;;;;;;4416029;32;20366;-72
2022/08/11 09:00:59;;;;;;;;;;;26.50;74.60;;;;;;4414122;32;20480;-74
2022/08/11 09:03:26;;;;;;;;;;;26.60;73.60;;;;;;4395031;32;19954;-74
2022/08/11 09:05:54;;;;;;;;;;;26.70;73.40;;;;;;4386418;32;19958;-73
2022/08/11 09:08:20;;;;;;;;;;;26.80;72.20;;;;;;4386264;32;19946;-73
2022/08/11 09:11:48;;;;;;;;;;;26.90;72.80;;;;;;4386612;32;19950;-73
2022/08/11 09:13:33;;;;;;;;;;;27.00;71.90;;;;;;4394562;32;19992;-73
2022/08/11 09:15:59;;;;;;;;;;;27.10;71.80;;;;;;4397665;32;20004;-73
2022/08/11 09:18:25;;;;;;;;;;;27.30;71.70;;;;;;4401679;32;20361;-73
2022/08/11 09:20:50;;;;;;;;;;;27.40;70.50;;;;;;4401445;32;19995;-73
2022/08/11 09:27:02;;;;;;;;;;;27.50;70.50;;;;;;4389612;32;19945;-73
2022/08/11 09:28:48;;;;;;;;;;;27.70;70.40;;;;;;4389103;32;19953;-73
2022/08/11 09:31:14;;;;;;;;;;;27.50;69.50;;;;;;4403560;32;20413;-73
2022/08/11 09:33:41;;;;;;;;;;;27.40;70.20;;;;;;4400123;32;20004;-73
2022/08/11 09:40:53;;;;;;;;;;;27.80;68.70;;;;;;4388933;32;20287;-73
2022/08/11 09:41:39;;;;;;;;;;;27.90;68.20;;;;;;4387823;32;19956;-74
2022/08/11 09:45:05;;;;;;;;;;;28.00;67.60;;;;;;4401159;32;19950;-73
2022/08/11 09:46:54;;;;;;;;;;;27.80;67.60;;;;;;4398732;32;20377;-74
2022/08/11 09:49:20;;;;;;;;;;;27.80;66.60;;;;;;4400559;32;20342;-73
2022/08/11 09:51:46;;;;;;;;;;;27.90;66.80;;;;;;4401301;32;19997;-73
2022/08/11 09:54:12;;;;;;;;;;;28.00;66.10;;;;;;4403286;32;19941;-73
2022/08/11 09:58:37;;;;;;;;;;;28.00;66.80;;;;;;4409702;32;19949;-73
2022/08/11 09:59:23;;;;;;;;;;;28.00;66.50;;;;;;4388245;32;19960;-73
2022/08/11 10:01:51;;;;;;;;;;;28.10;66.30;;;;;;4399994;32;19946;-73
2022/08/11 10:04:18;;;;;;;;;;;28.40;65.20;;;;;;4400049;32;19941;-73
2022/08/11 10:07:00;;;;;;;;;;;28.80;64.70;;;;;;4401475;32;19953;-73
2022/08/11 10:09:27;;;;;;;;;;;29.00;63.90;;;;;;4399364;32;19999;-73
2022/08/11 10:11:56;;;;;;;;;;;29.20;64.20;;;;;;4399776;32;20331;-73
2022/08/11 10:15:38;;;;;;;;;;;29.30;63.30;;;;;;4399723;32;20372;-73
2022/08/11 10:17:08;;;;;;;;;;;29.40;64.30;;;;;;4373239;32;19961;-73
2022/08/11 10:19:36;;;;;;;;;;;29.40;63.50;;;;;;4384449;32;19949;-73
2022/08/11 10:26:53;;;;;;;;;;;29.60;62.70;;;;;;4373602;32;19922;-74
2022/08/11 10:27:34;;;;;;;;;;;29.50;62.80;;;;;;4387713;32;19992;-74
2022/08/11 10:34:00;;;;;;;;;;;29.70;63.50;;;;;;4387943;32;19953;-74
2022/08/11 10:35:31;;;;;;;;;;;30.10;61.90;;;;;;4388385;32;19989;-73
2022/08/11 10:37:57;;;;;;;;;;;30.40;60.40;;;;;;4398971;32;19988;-73
2022/08/11 10:40:23;;;;;;;;;;;30.50;60.90;;;;;;4400227;32;19956;-73
2022/08/11 10:43:24;;;;;;;;;;;30.50;59.90;;;;;;4400331;32;20003;-73
2022/08/11 10:47:39;;;;;;;;;;;30.20;59.70;;;;;;4387963;32;19960;-73
2022/08/11 10:48:26;;;;;;;;;;;29.80;59.70;;;;;;4387745;32;19949;-73
2022/08/11 10:59:02;;;;;;;;;;;29.60;61.00;;;;;;4372659;32;19946;-73
2022/08/11 10:59:15;;;;;;;;;;;29.50;61.20;;;;;;4372572;32;19941;-73
2022/08/11 11:01:42;;;;;;;;;;;29.70;60.50;;;;;;4385243;32;19999;-74
2022/08/11 11:04:12;;;;;;;;;;;30.00;59.80;;;;;;4397083;32;19964;-73
2022/08/11 11:06:48;;;;;;;;;;;30.40;59.10;;;;;;4400228;32;19953;-73
2022/08/11 11:09:16;;;;;;;;;;;30.80;58.30;;;;;;4399476;32;19960;-74
2022/08/11 11:18:28;;;;;;;;;;;31.20;57.00;;;;;;4376982;32;19949;-74
2022/08/11 11:20:15;;;;;;;;;;;31.50;56.50;;;;;;4387415;32;20013;-73
2022/08/11 11:22:46;;;;;;;;;;;31.50;56.30;;;;;;4400312;32;20016;-73
2022/08/11 11:25:19;;;;;;;;;;;31.80;56.60;;;;;;4398973;32;19974;-73
2022/08/11 11:27:53;;;;;;;;;;;32.10;56.20;;;;;;4400052;32;19961;-73
2022/08/11 11:30:19;;;;;;;;;;;32.40;56.00;;;;;;4399649;32;19946;-73
2022/08/11 11:33:04;;;;;;;;;;;32.70;55.80;;;;;;4399888;32;20017;-73
2022/08/11 11:35:35;;;;;;;;;;;33.00;55.50;;;;;;4387369;32;19957;-73
2022/08/11 11:38:01;;;;;;;;;;;32.90;55.00;;;;;;4399743;32;20020;-73
2022/08/11 11:40:27;;;;;;;;;;;32.90;55.00;;;;;;4398414;32;19956;-73
2022/08/11 11:42:54;;;;;;;;;;;33.10;54.50;;;;;;4400450;32;20390;-73
2022/08/11 11:45:21;;;;;;;;;;;33.30;54.20;;;;;;4399040;32;19956;-73
2022/08/11 11:47:51;;;;;;;;;;;33.50;54.00;;;;;;4398614;32;19995;-74
2022/08/11 11:50:22;;;;;;;;;;;33.60;53.30;;;;;;4399857;32;20401;-74
2022/08/11 11:52:48;;;;;;;;;;;33.70;53.20;;;;;;4399628;32;19946;-74
2022/08/11 11:55:14;;;;;;;;;;;33.90;52.60;;;;;;4399705;32;19949;-74
2022/08/11 12:01:27;;;;;;;;;;;34.40;52.00;;;;;;4386469;32;19993;-74
2022/08/11 12:03:13;;;;;;;;;;;34.00;52.40;;;;;;4387409;32;19945;-74
2022/08/11 12:05:40;;;;;;;;;;;33.80;52.70;;;;;;4399488;32;19964;-74
2022/08/11 12:08:13;;;;;;;;;;;33.60;53.30;;;;;;4398797;32;20016;-74
2022/08/11 12:10:44;;;;;;;;;;;33.60;53.20;;;;;;4398862;32;19990;-74
2022/08/11 12:13:41;;;;;;;;;;;33.90;52.70;;;;;;4399455;32;19942;-74
2022/08/11 12:15:56;;;;;;;;;;;33.80;53.00;;;;;;4381839;32;19996;-73
2022/08/11 12:18:21;;;;;;;;;;;33.90;53.30;;;;;;4383824;32;20346;-73
2022/08/11 12:20:47;;;;;;;;;;;34.10;52.90;;;;;;4383383;32;20001;-74
2022/08/11 12:27:29;;;;;;;;;;;34.80;51.80;;;;;;4387362;32;20287;-74
2022/08/11 12:28:44;;;;;;;;;;;35.40;50.70;;;;;;4389592;32;19953;-74
2022/08/11 12:31:10;;;;;;;;;;;35.70;50.40;;;;;;4401390;32;19945;-74
2022/08/11 12:33:37;;;;;;;;;;;35.20;50.90;;;;;;4401101;32;20345;-74
2022/08/11 12:36:04;;;;;;;;;;;35.10;51.40;;;;;;4400964;32;19956;-74
2022/08/11 12:38:30;;;;;;;;;;;35.10;50.90;;;;;;4401617;32;20443;-74
2022/08/11 12:45:45;;;;;;;;;;;35.50;50.50;;;;;;4389104;32;19957;-74
2022/08/11 12:46:31;;;;;;;;;;;35.40;50.90;;;;;;4389175;32;19986;-74
2022/08/11 12:52:01;;;;;;;;;;;35.60;49.80;;;;;;4389292;32;20326;-74
2022/08/11 12:54:30;;;;;;;;;;;35.60;49.70;;;;;;4405068;32;19945;-74
2022/08/11 12:58:30;;;;;;;;;;;36.00;49.50;;;;;;4417303;32;19952;-74
2022/08/11 13:05:01;;;;;;;;;;;36.30;49.60;;;;;;4389181;32;19956;-74
2022/08/11 13:05:15;;;;;;;;;;;35.40;49.60;;;;;;4388908;32;19961;-74
2022/08/11 13:07:41;;;;;;;;;;;35.40;49.70;;;;;;4400839;32;19964;-74
2022/08/11 13:10:08;;;;;;;;;;;36.00;49.70;;;;;;4400787;32;19945;-74
2022/08/11 13:12:49;;;;;;;;;;;36.70;48.10;;;;;;4400706;32;19960;-74
2022/08/11 13:15:18;;;;;;;;;;;37.10;47.40;;;;;;4401593;32;20485;-74
2022/08/11 13:17:43;;;;;;;;;;;37.40;47.10;;;;;;4391348;32;20320;-74
2022/08/11 13:20:11;;;;;;;;;;;37.20;46.50;;;;;;4385354;32;19986;-74
2022/08/11 13:22:38;;;;;;;;;;;36.80;48.00;;;;;;4386368;32;20382;-74
2022/08/11 13:25:04;;;;;;;;;;;37.20;47.10;;;;;;4386466;32;20029;-74
2022/08/11 13:27:30;;;;;;;;;;;37.20;47.00;;;;;;4395728;32;19949;-74
2022/08/11 13:31:13;;;;;;;;;;;37.20;46.60;;;;;;4401129;32;19974;-74
2022/08/11 13:32:43;;;;;;;;;;;37.20;46.40;;;;;;4388952;32;20052;-74
2022/08/11 13:35:10;;;;;;;;;;;37.20;45.90;;;;;;4400058;32;19961;-74
2022/08/11 13:37:36;;;;;;;;;;;37.30;46.10;;;;;;4401410;32;20288;-74
2022/08/11 13:40:02;;;;;;;;;;;37.50;45.50;;;;;;4400638;32;19958;-74
2022/08/11 13:42:28;;;;;;;;;;;36.60;46.60;;;;;;4400512;32;19970;-74
2022/08/11 13:44:54;;;;;;;;;;;36.90;46.50;;;;;;4399822;32;19982;-74
2022/08/11 13:47:22;;;;;;;;;;;37.10;46.30;;;;;;4399626;32;19958;-74
2022/08/11 13:49:48;;;;;;;;;;;37.40;46.10;;;;;;4400961;32;19949;-74
2022/08/11 13:52:14;;;;;;;;;;;37.50;46.10;;;;;;4401420;32;19953;-74
2022/08/11 13:54:41;;;;;;;;;;;37.10;45.50;;;;;;4405566;32;20052;-74
2022/08/11 13:57:07;;;;;;;;;;;36.90;45.70;;;;;;4415542;32;19964;-74
2022/08/11 13:59:33;;;;;;;;;;;36.60;46.50;;;;;;4414759;32;19960;-74
2022/08/11 14:02:02;;;;;;;;;;;36.10;46.40;;;;;;4415701;32;20231;-74
2022/08/11 14:04:29;;;;;;;;;;;35.70;46.80;;;;;;4415623;32;19945;-73
2022/08/11 14:06:59;;;;;;;;;;;35.20;47.00;;;;;;4416001;32;19996;-73
2022/08/11 14:09:27;;;;;;;;;;;34.60;47.90;;;;;;4405399;32;20307;-73
2022/08/11 14:13:57;;;;;;;;;;;34.40;47.80;;;;;;4400795;32;19957;-73
2022/08/11 14:14:42;;;;;;;;;;;34.10;48.50;;;;;;4387956;32;19942;-73
2022/08/11 14:17:08;;;;;;;;;;;34.00;48.10;;;;;;4394181;32;19953;-73
2022/08/11 14:19:38;;;;;;;;;;;33.70;49.10;;;;;;4384293;32;20068;-73
2022/08/11 14:22:07;;;;;;;;;;;34.30;48.10;;;;;;4384524;32;19961;-73
2022/08/11 14:24:41;;;;;;;;;;;34.90;47.10;;;;;;4398340;32;19950;-73
2022/08/11 14:27:09;;;;;;;;;;;35.00;47.00;;;;;;4400666;32;20009;-74
2022/08/11 14:29:37;;;;;;;;;;;34.90;46.90;;;;;;4400155;32;20416;-73
2022/08/11 14:32:05;;;;;;;;;;;35.20;47.10;;;;;;4399839;32;19966;-74
2022/08/11 14:34:33;;;;;;;;;;;34.90;47.00;;;;;;4399325;32;19952;-73
2022/08/11 14:37:01;;;;;;;;;;;34.20;47.30;;;;;;4399498;32;20311;-73
2022/08/11 14:39:27;;;;;;;;;;;33.60;48.40;;;;;;4398718;32;19949;-73
2022/08/11 14:47:15;;;;;;;;;;;33.30;48.40;;;;;;4387524;32;19956;-73
2022/08/11 14:47:32;;;;;;;;;;;33.20;47.90;;;;;;4388065;32;20366;-73
2022/08/11 14:49:59;;;;;;;;;;;33.20;48.00;;;;;;4399734;32;19949;-73
2022/08/11 14:52:24;;;;;;;;;;;33.10;48.10;;;;;;4399448;32;20016;-73
2022/08/11 14:56:51;;;;;;;;;;;32.90;48.00;;;;;;4399283;32;19989;-73
2022/08/11 14:57:37;;;;;;;;;;;33.10;48.10;;;;;;4387332;32;19949;-73
2022/08/11 15:00:04;;;;;;;;;;;33.60;47.30;;;;;;4399560;32;19957;-73
2022/08/11 15:03:29;;;;;;;;;;;34.70;46.50;;;;;;4399528;32;19974;-73
2022/08/11 15:05:15;;;;;;;;;;;35.40;45.50;;;;;;4387652;32;19958;-74
2022/08/11 15:07:41;;;;;;;;;;;34.40;46.30;;;;;;4399197;32;19957;-73
2022/08/11 15:10:07;;;;;;;;;;;33.50;46.40;;;;;;4399613;32;19945;-73
2022/08/11 15:12:33;;;;;;;;;;;33.20;46.60;;;;;;4399777;32;19998;-73
2022/08/11 15:17:14;;;;;;;;;;;33.50;46.90;;;;;;4400062;32;19949;-74
2022/08/11 15:17:46;;;;;;;;;;;34.20;46.30;;;;;;4377248;32;19996;-74
2022/08/11 15:24:32;;;;;;;;;;;35.40;45.20;;;;;;4372392;32;20000;-74
2022/08/11 15:25:48;;;;;;;;;;;36.10;44.20;;;;;;4385019;32;19929;-74
2022/08/11 15:37:35;;;;;;;;;;;33.50;45.60;;;;;;4397391;32;19961;-73
2022/08/11 15:39:23;;;;;;;;;;;33.00;46.50;;;;;;4397857;32;19952;-73
2022/08/11 15:45:49;;;;;;;;;;;32.30;46.70;;;;;;4387374;32;19945;-74
2022/08/11 15:47:32;;;;;;;;;;;31.90;47.20;;;;;;4382610;32;19942;-73
2022/08/11 15:49:58;;;;;;;;;;;31.80;48.00;;;;;;4385101;32;20010;-73
2022/08/11 15:52:29;;;;;;;;;;;31.60;47.50;;;;;;4399594;32;19950;-73
2022/08/11 15:54:58;;;;;;;;;;;31.50;47.60;;;;;;4400463;32;19949;-73
2022/08/11 16:05:24;;;;;;;;;;;31.10;48.00;;;;;;4401474;32;19997;-73
2022/08/11 16:07:50;;;;;;;;;;;30.90;47.60;;;;;;4401131;32;19984;-73
2022/08/11 16:10:20;;;;;;;;;;;30.80;47.70;;;;;;4401499;32;20346;-73
2022/08/11 16:16:40;;;;;;;;;;;31.10;48.00;;;;;;4409143;32;19942;-73
2022/08/11 16:18:39;;;;;;;;;;;31.00;47.30;;;;;;4394727;32;20008;-73
2022/08/11 16:21:07;;;;;;;;;;;30.80;47.80;;;;;;4402642;32;19995;-73
2022/08/11 16:23:32;;;;;;;;;;;30.70;47.80;;;;;;4401861;32;19949;-73
2022/08/11 16:25:59;;;;;;;;;;;30.60;48.20;;;;;;4402531;32;19999;-73
2022/08/11 16:28:25;;;;;;;;;;;30.50;47.80;;;;;;4401144;32;20295;-73
2022/08/11 16:30:52;;;;;;;;;;;30.50;48.70;;;;;;4402228;32;19953;-73
2022/08/11 16:33:19;;;;;;;;;;;30.50;47.80;;;;;;4400443;32;19998;-73
2022/08/11 16:38:34;;;;;;;;;;;30.70;47.20;;;;;;4389557;32;19949;-73
2022/08/11 16:41:02;;;;;;;;;;;30.60;48.20;;;;;;4401876;32;19954;-73
2022/08/11 16:47:15;;;;;;;;;;;30.60;47.10;;;;;;4389350;32;19950;-74
2022/08/11 16:49:03;;;;;;;;;;;30.50;47.40;;;;;;4374554;32;19949;-74
2022/08/11 16:51:29;;;;;;;;;;;30.30;47.00;;;;;;4385999;32;19956;-74
2022/08/11 16:53:55;;;;;;;;;;;30.20;47.10;;;;;;4416961;32;20005;-74
2022/08/11 16:56:24;;;;;;;;;;;30.10;47.40;;;;;;4416432;32;19944;-74
2022/08/11 16:59:24;;;;;;;;;;;30.00;47.30;;;;;;4416644;32;20315;-74
2022/08/11 17:01:38;;;;;;;;;;;30.00;47.10;;;;;;4402102;32;19953;-73
2022/08/11 17:13:25;;;;;;;;;;;29.80;46.70;;;;;;4388712;32;20381;-74
2022/08/11 17:16:05;;;;;;;;;;;29.70;46.20;;;;;;4389401;32;20007;-74
2022/08/11 17:18:01;;;;;;;;;;;29.70;46.60;;;;;;4387371;32;19998;-74
2022/08/11 17:20:27;;;;;;;;;;;29.70;46.40;;;;;;4388455;32;19950;-73
2022/08/11 17:23:53;;;;;;;;;;;29.80;46.40;;;;;;4386514;32;19964;-74
2022/08/11 17:25:39;;;;;;;;;;;29.70;46.30;;;;;;4385064;32;20405;-74
2022/08/11 17:28:05;;;;;;;;;;;29.60;46.80;;;;;;4401012;32;19949;-74
2022/08/11 17:35:33;;;;;;;;;;;29.40;46.60;;;;;;4389396;32;20429;-74
2022/08/11 17:36:03;;;;;;;;;;;29.30;47.10;;;;;;4388644;32;19957;-73
2022/08/11 17:38:29;;;;;;;;;;;29.20;47.00;;;;;;4401163;32;19954;-73
2022/08/11 17:48:27;;;;;;;;;;;28.90;47.00;;;;;;4389181;32;19949;-73
2022/08/11 17:49:15;;;;;;;;;;;28.90;48.00;;;;;;4393586;32;19960;-73